Time;durP1;ratioP1;P1;durP2;ratioP2;P2;SDS_P1;SDS_P2;PMS_P1;PMS_P2;Temp;Humidity;BMP_temperature;BMP_pressure;BME280_temperature;BME280_humidity;BME280_pressure;Samples;Min_cycle;Max_cycle;Signal;HPM_P1;HPM_P2
2023/04/10 00:01:35;;;;;;;32.83;18.23;;;;;;;6.09;100.00;102153.47;4962853;28;20034;-71
2023/04/10 00:04:01;;;;;;;37.15;18.25;;;;;;;6.06;100.00;102148.22;4961568;28;20038;-72
2023/04/10 00:06:27;;;;;;;36.58;18.88;;;;;;;6.05;100.00;102151.75;4941889;28;20505;-74
2023/04/10 00:08:53;;;;;;;34.60;19.40;;;;;;;6.03;100.00;102158.78;4964960;28;20192;-71
2023/04/10 00:11:18;;;;;;;39.47;19.20;;;;;;;6.02;100.00;102153.47;4965328;28;20176;-73
2023/04/10 00:13:44;;;;;;;40.70;19.75;;;;;;;5.98;100.00;102145.63;4964907;28;20049;-72
2023/04/10 00:16:10;;;;;;;39.67;20.25;;;;;;;5.95;100.00;102132.47;4947050;28;20042;-72
2023/04/10 00:18:35;;;;;;;38.13;20.00;;;;;;;5.92;100.00;102142.13;4957937;28;20073;-72
2023/04/10 00:21:02;;;;;;;40.33;19.92;;;;;;;5.88;100.00;102137.78;4960216;28;20038;-73
2023/04/10 00:23:30;;;;;;;38.45;20.42;;;;;;;5.84;100.00;102134.31;4963473;28;22080;-72
2023/04/10 00:25:56;;;;;;;39.13;20.83;;;;;;;5.81;100.00;102129.06;4942962;28;20502;-72
2023/04/10 00:28:21;;;;;;;43.70;19.55;;;;;;;5.76;100.00;102121.19;4945943;28;20492;-72
2023/04/10 00:30:47;;;;;;;45.20;22.52;;;;;;;5.71;100.00;102105.47;4964843;28;20117;-73
2023/04/10 00:33:13;;;;;;;41.00;21.98;;;;;;;5.68;100.00;102102.81;4962875;28;20130;-72
2023/04/10 00:35:39;;;;;;;44.88;23.42;;;;;;;5.65;100.00;102099.34;4963835;28;20034;-72
2023/04/10 00:38:04;;;;;;;44.70;22.55;;;;;;;5.62;100.00;102091.47;4964694;28;20600;-73
2023/04/10 00:40:30;;;;;;;43.70;23.10;;;;;;;5.58;100.00;102091.47;4964674;28;20074;-73
2023/04/10 00:42:56;;;;;;;46.38;23.67;;;;;;;5.55;100.00;102086.25;4961412;28;20034;-71
2023/04/10 00:45:21;;;;;;;42.63;22.60;;;;;;;5.54;100.00;102081.00;4962201;28;20050;-71
2023/04/10 00:47:47;;;;;;;38.67;21.30;;;;;;;5.51;100.00;102088.91;4965167;28;20077;-72
2023/04/10 00:50:12;;;;;;;43.75;22.67;;;;;;;5.47;100.00;102077.53;4960873;28;20030;-72
2023/04/10 00:52:38;;;;;;;43.50;21.27;;;;;;;5.46;100.00;102075.81;4963895;28;20125;-72
2023/04/10 00:55:04;;;;;;;41.28;21.60;;;;;;;5.44;100.00;102072.28;4962059;28;21013;-73
2023/04/10 00:57:31;;;;;;;43.60;22.38;;;;;;;5.42;100.00;102066.16;4963561;28;20074;-72
2023/04/10 00:59:56;;;;;;;39.55;21.98;;;;;;;5.41;100.00;102069.69;4944988;28;20173;-72
2023/04/10 01:02:22;;;;;;;43.08;21.77;;;;;;;5.39;100.00;102069.69;4961789;28;20501;-73
2023/04/10 01:04:47;;;;;;;46.60;22.83;;;;;;;5.37;100.00;102060.94;4964264;28;20038;-73
2023/04/10 01:07:51;;;;;;;44.38;22.88;;;;;;;5.37;100.00;102070.56;4942114;28;20497;-72
2023/04/10 01:10:42;;;;;;;44.95;22.73;;;;;;;5.35;100.00;102064.44;4907818;29;20047;-72
2023/04/10 01:13:15;;;;;;;43.92;23.33;;;;;;;5.33;100.00;102061.81;4961365;28;20093;-72
2023/04/10 01:15:52;;;;;;;49.47;23.80;;;;;;;5.31;100.00;102055.72;4958969;28;20074;-72
2023/04/10 01:18:23;;;;;;;47.90;22.88;;;;;;;5.29;100.00;102055.72;4961221;28;20356;-72
2023/04/10 01:20:48;;;;;;;44.22;23.73;;;;;;;5.29;100.00;102047.84;4942380;28;20355;-72
2023/04/10 01:23:42;;;;;;;53.65;25.73;;;;;;;5.28;100.00;102037.31;4944497;28;20092;-71
2023/04/10 01:26:13;;;;;;;50.88;24.67;;;;;;;5.27;100.00;102033.84;4947257;28;20034;-72
2023/04/10 01:29:00;;;;;;;48.35;24.73;;;;;;;5.27;100.00;102035.59;4943312;28;20034;-72
2023/04/10 01:31:46;;;;;;;43.35;23.83;;;;;;;5.27;100.00;102025.09;4941604;28;20050;-73
2023/04/10 01:34:19;;;;;;;47.80;24.08;;;;;;;5.26;100.00;102026.84;4941682;28;20145;-72
2023/04/10 01:36:59;;;;;;;50.00;24.70;;;;;;;5.26;100.00;102032.09;4929472;28;20059;-72
2023/04/10 01:39:25;;;;;;;45.55;23.98;;;;;;;5.24;100.00;102025.09;4925324;28;20043;-72
2023/04/10 01:41:51;;;;;;;42.67;23.20;;;;;;;5.24;100.00;102023.34;4939577;28;21626;-71
2023/04/10 01:44:20;;;;;;;46.15;23.67;;;;;;;5.20;100.00;102021.63;4938288;28;20540;-72
2023/04/10 01:46:48;;;;;;;48.40;23.83;;;;;;;5.20;100.00;102016.38;4945076;28;20486;-72
2023/04/10 01:49:14;;;;;;;43.83;24.13;;;;;;;5.19;100.00;102014.63;4941561;28;20042;-71
2023/04/10 01:51:40;;;;;;;47.28;24.00;;;;;;;5.19;100.00;102022.50;4943272;28;20114;-71
2023/04/10 01:54:06;;;;;;;48.80;25.70;;;;;;;5.17;100.00;102016.38;4940035;28;20038;-72
2023/04/10 01:56:32;;;;;;;45.78;23.85;;;;;;;5.16;100.00;102012.00;4943690;28;20042;-73
2023/04/10 01:58:58;;;;;;;49.35;25.17;;;;;;;5.14;100.00;102006.75;4942365;28;20035;-72
2023/04/10 02:01:23;;;;;;;48.35;25.67;;;;;;;5.14;100.00;102005.88;4928675;28;20043;-72
2023/04/10 02:03:49;;;;;;;48.90;25.00;;;;;;;5.13;100.00;102014.66;4940233;28;20488;-72
2023/04/10 02:06:36;;;;;;;47.00;24.02;;;;;;;5.10;100.00;102007.66;4940065;28;20051;-71
2023/04/10 02:09:27;;;;;;;49.33;24.60;;;;;;;5.09;100.00;102007.66;4943082;28;20063;-72
2023/04/10 02:12:04;;;;;;;47.55;24.75;;;;;;;5.07;100.00;101998.91;4956691;28;20038;-72
2023/04/10 02:14:31;;;;;;;44.03;23.95;;;;;;;5.05;100.00;101998.06;4958273;28;20042;-72
2023/04/10 02:16:57;;;;;;;50.08;25.13;;;;;;;5.02;100.00;101986.66;4941017;28;20038;-72
2023/04/10 02:19:24;;;;;;;46.95;23.08;;;;;;;5.01;100.00;101990.19;4943875;28;20104;-72
2023/04/10 02:21:50;;;;;;;46.63;24.77;;;;;;;5.00;100.00;101991.06;4943435;28;20046;-72
2023/04/10 02:24:17;;;;;;;44.17;24.67;;;;;;;4.98;100.00;101986.69;4944034;28;20038;-71
2023/04/10 02:26:49;;;;;;;46.03;25.08;;;;;;;4.97;100.00;101992.84;4941858;28;20126;-73
2023/04/10 02:29:15;;;;;;;46.80;24.70;;;;;;;4.95;100.00;101987.56;4940515;28;20101;-72
2023/04/10 02:31:42;;;;;;;48.30;24.85;;;;;;;4.94;100.00;101992.81;4942938;28;20042;-72
2023/04/10 02:34:07;;;;;;;43.83;25.55;;;;;;;4.92;100.00;101979.72;4943093;28;20045;-72
2023/04/10 02:36:34;;;;;;;43.30;23.60;;;;;;;4.92;100.00;101986.72;4943996;28;20047;-73
2023/04/10 02:39:00;;;;;;;43.47;24.27;;;;;;;4.93;100.00;101986.72;4946738;28;20109;-72
2023/04/10 02:41:25;;;;;;;51.30;25.55;;;;;;;4.93;100.00;101985.84;4958132;28;20122;-72
2023/04/10 02:43:51;;;;;;;49.17;25.10;;;;;;;4.93;100.00;101977.97;4927476;28;20514;-72
2023/04/10 02:46:16;;;;;;;53.08;26.33;;;;;;;4.93;100.00;101978.84;4962194;28;20665;-72
2023/04/10 02:48:41;;;;;;;47.88;25.40;;;;;;;4.93;100.00;101978.84;4962345;28;20031;-72
2023/04/10 02:51:07;;;;;;;50.92;25.30;;;;;;;4.95;100.00;101979.69;4962542;28;20082;-72
2023/04/10 02:53:33;;;;;;;48.03;25.73;;;;;;;4.95;100.00;101979.69;4926281;28;20043;-74
2023/04/10 02:55:59;;;;;;;45.85;25.20;;;;;;;4.97;100.00;101985.81;4940195;28;20165;-73
2023/04/10 02:58:24;;;;;;;49.45;26.00;;;;;;;4.98;100.00;101979.72;4961976;28;20100;-71
2023/04/10 03:00:50;;;;;;;48.13;24.48;;;;;;;4.98;100.00;101984.06;4961852;28;20492;-72
2023/04/10 03:03:18;;;;;;;47.42;25.27;;;;;;;5.00;100.00;101974.44;4937810;28;20492;-71
2023/04/10 03:05:45;;;;;;;45.97;26.05;;;;;;;4.98;100.00;101978.81;4940201;28;20041;-73
2023/04/10 03:08:16;;;;;;;49.42;25.70;;;;;;;5.01;100.00;101982.31;4947681;28;20030;-72
2023/04/10 03:10:47;;;;;;;46.58;24.17;;;;;;;5.02;100.00;101976.19;4945170;28;20065;-73
2023/04/10 03:13:13;;;;;;;46.60;24.55;;;;;;;5.03;100.00;101977.91;4942208;28;20785;-72
2023/04/10 03:15:39;;;;;;;46.28;23.92;;;;;;;5.03;100.00;101967.41;4944399;28;20445;-73
2023/04/10 03:18:05;;;;;;;45.80;24.63;;;;;;;5.06;100.00;101976.19;4962081;28;20045;-71
2023/04/10 03:20:36;;;;;;;49.78;25.80;;;;;;;5.06;100.00;101970.94;4958071;28;20035;-72
2023/04/10 03:23:02;;;;;;;44.47;25.00;;;;;;;5.05;100.00;101972.66;4962154;28;20034;-72
2023/04/10 03:25:27;;;;;;;47.47;24.73;;;;;;;5.01;100.00;101974.44;4961623;28;20482;-72
2023/04/10 03:27:53;;;;;;;45.60;24.92;;;;;;;5.00;100.00;101967.44;4939490;28;20031;-72
2023/04/10 03:30:19;;;;;;;42.30;23.42;;;;;;;4.99;100.00;101960.44;4937905;28;20038;-73
2023/04/10 03:32:45;;;;;;;46.00;23.77;;;;;;;4.99;100.00;101963.06;4962109;28;20179;-72
2023/04/10 03:35:10;;;;;;;42.38;23.25;;;;;;;4.98;100.00;101957.81;4961882;28;20042;-71
2023/04/10 03:37:36;;;;;;;40.53;22.63;;;;;;;4.99;100.00;101964.81;4938413;28;20477;-73
2023/04/10 03:40:06;;;;;;;47.33;23.95;;;;;;;4.99;100.00;101959.56;4944303;28;20038;-73
2023/04/10 03:42:32;;;;;;;44.13;23.92;;;;;;;4.98;100.00;101952.56;4961270;28;20054;-72
2023/04/10 03:44:57;;;;;;;45.33;23.70;;;;;;;4.98;100.00;101948.22;4959331;28;20588;-71
2023/04/10 03:47:23;;;;;;;51.55;24.42;;;;;;;4.99;100.00;101949.94;4960120;28;20038;-71
2023/04/10 03:49:48;;;;;;;42.92;23.98;;;;;;;4.98;100.00;101945.59;4961768;28;20161;-72
2023/04/10 03:52:14;;;;;;;47.10;24.98;;;;;;;4.97;100.00;101935.94;4930772;28;20035;-73
2023/04/10 03:54:39;;;;;;;42.72;23.48;;;;;;;4.97;100.00;101932.47;4963160;28;20599;-72
2023/04/10 03:57:05;;;;;;;43.13;23.23;;;;;;;4.96;100.00;101921.06;4944893;28;20778;-72
2023/04/10 03:59:30;;;;;;;45.90;23.30;;;;;;;4.96;100.00;101922.84;4964871;28;21508;-72
2023/04/10 04:01:56;;;;;;;44.67;23.95;;;;;;;4.97;100.00;101922.81;4934197;28;20124;-72
2023/04/10 04:04:21;;;;;;;38.58;22.02;;;;;;;4.97;100.00;101917.56;4941283;28;20506;-73
2023/04/10 04:06:47;;;;;;;41.83;21.63;;;;;;;5.00;100.00;101908.81;4926735;28;20074;-72
2023/04/10 04:09:13;;;;;;;40.78;22.48;;;;;;;5.03;100.00;101907.03;4965576;28;20050;-73
2023/04/10 04:11:38;;;;;;;36.95;20.60;;;;;;;5.08;100.00;101898.28;4926583;28;20037;-71
2023/04/10 04:14:04;;;;;;;36.35;20.40;;;;;;;5.14;100.00;101895.63;4949219;28;20504;-72
2023/04/10 04:16:29;;;;;;;36.78;20.23;;;;;;;5.19;100.00;101895.59;4942687;28;20100;-72
2023/04/10 04:18:55;;;;;;;42.03;20.10;;;;;;;5.22;100.00;101896.44;4964443;28;20137;-72
2023/04/10 04:21:20;;;;;;;39.63;21.15;;;;;;;5.25;100.00;101893.81;4965540;28;20121;-71
2023/04/10 04:23:46;;;;;;;35.80;19.75;;;;;;;5.28;100.00;101890.28;4947043;28;20492;-72
2023/04/10 04:26:11;;;;;;;38.67;20.17;;;;;;;5.28;100.00;101885.91;4964717;28;20675;-73
2023/04/10 04:28:36;;;;;;;37.55;19.65;;;;;;;5.31;100.00;101890.28;4961988;28;20275;-72
2023/04/10 04:31:02;;;;;;;35.53;20.08;;;;;;;5.30;100.00;101881.50;4962872;28;20477;-73
2023/04/10 04:33:27;;;;;;;36.28;19.27;;;;;;;5.32;100.00;101886.75;4964726;28;20121;-73
2023/04/10 04:35:53;;;;;;;34.28;18.27;;;;;;;5.32;100.00;101883.28;4964540;28;20034;-73
2023/04/10 04:38:19;;;;;;;37.28;18.80;;;;;;;5.33;100.00;101877.13;4942659;28;20414;-73
2023/04/10 04:40:45;;;;;;;32.92;18.10;;;;;;;5.33;100.00;101874.50;4928780;28;20398;-73
2023/04/10 04:43:10;;;;;;;34.70;17.88;;;;;;;5.32;100.00;101873.63;4946446;28;20038;-72
2023/04/10 04:45:36;;;;;;;31.83;18.45;;;;;;;5.33;100.00;101871.88;4965038;28;20045;-72
2023/04/10 04:48:01;;;;;;;32.05;17.08;;;;;;;5.32;100.00;101862.28;4963981;28;20070;-72
2023/04/10 04:50:27;;;;;;;31.75;17.15;;;;;;;5.33;100.00;101864.00;4943625;28;20069;-72
2023/04/10 04:52:52;;;;;;;31.73;17.10;;;;;;;5.34;100.00;101863.13;4933236;28;20532;-73
2023/04/10 04:55:18;;;;;;;32.08;18.23;;;;;;;5.34;100.00;101863.13;4946651;28;20030;-72
2023/04/10 04:57:43;;;;;;;31.10;17.00;;;;;;;5.34;100.00;101861.34;4963793;28;20026;-72
2023/04/10 05:00:09;;;;;;;29.52;15.93;;;;;;;5.35;100.00;101856.97;4943489;28;20026;-72
2023/04/10 05:02:35;;;;;;;28.38;15.38;;;;;;;5.34;100.00;101858.72;4946122;28;20069;-73
2023/04/10 05:05:01;;;;;;;29.73;14.93;;;;;;;5.37;100.00;101860.44;4963234;28;20502;-72
2023/04/10 05:07:26;;;;;;;29.13;15.40;;;;;;;5.38;100.00;101857.81;4961785;28;20049;-71
2023/04/10 05:09:52;;;;;;;27.20;15.32;;;;;;;5.39;100.00;101858.72;4941386;28;20038;-72
2023/04/10 05:12:17;;;;;;;29.13;15.50;;;;;;;5.40;100.00;101858.69;4928176;28;20604;-72
2023/04/10 05:14:44;;;;;;;29.00;15.32;;;;;;;5.42;100.00;101858.66;4964196;28;20684;-72
2023/04/10 05:17:10;;;;;;;27.85;14.43;;;;;;;5.42;100.00;101861.31;4958387;28;20141;-73
2023/04/10 05:19:35;;;;;;;29.60;14.75;;;;;;;5.45;100.00;101858.63;4941788;28;20038;-73
2023/04/10 05:22:00;;;;;;;25.45;13.95;;;;;;;5.49;100.00;101860.38;4947033;28;20568;-72
2023/04/10 05:24:26;;;;;;;27.75;13.85;;;;;;;5.48;100.00;101858.63;4962720;28;20129;-73
2023/04/10 05:26:52;;;;;;;23.83;13.70;;;;;;;5.52;100.00;101859.47;4960953;28;20042;-72
2023/04/10 05:29:17;;;;;;;27.33;14.15;;;;;;;5.54;100.00;101863.84;4963877;28;20074;-72
2023/04/10 05:31:42;;;;;;;25.50;13.73;;;;;;;5.56;100.00;101861.22;4945144;28;20034;-72
2023/04/10 05:34:08;;;;;;;27.15;13.65;;;;;;;5.57;100.00;101863.78;4939123;28;20034;-73
2023/04/10 05:36:34;;;;;;;28.60;14.30;;;;;;;5.59;100.00;101863.78;4949694;28;20089;-72
2023/04/10 05:38:59;;;;;;;25.25;12.77;;;;;;;5.62;100.00;101865.53;4940685;28;20043;-71
2023/04/10 05:41:25;;;;;;;21.67;12.70;;;;;;;5.64;100.00;101869.88;4962654;28;20453;-72
2023/04/10 05:43:50;;;;;;;24.60;13.57;;;;;;;5.65;100.00;101862.88;4960899;28;20791;-71
2023/04/10 05:46:16;;;;;;;25.52;13.48;;;;;;;5.67;100.00;101871.63;4961331;28;20186;-72
2023/04/10 05:48:42;;;;;;;22.83;13.18;;;;;;;5.70;100.00;101863.69;4962940;28;20031;-72
2023/04/10 05:51:08;;;;;;;23.83;13.23;;;;;;;5.72;100.00;101864.56;4962568;28;21964;-72
2023/04/10 05:53:34;;;;;;;26.70;13.45;;;;;;;5.74;100.00;101849.66;4960935;28;20104;-72
2023/04/10 05:56:00;;;;;;;24.33;12.35;;;;;;;5.78;100.00;101856.63;4959468;28;20038;-74
2023/04/10 05:58:27;;;;;;;25.13;12.68;;;;;;;5.84;100.00;101858.34;4962903;28;20061;-72
2023/04/10 06:00:54;;;;;;;21.85;12.10;;;;;;;5.89;100.00;101858.28;4943719;28;20150;-71
2023/04/10 06:03:20;;;;;;;24.85;12.80;;;;;;;5.93;100.00;101846.84;4944619;28;20026;-73
2023/04/10 06:05:46;;;;;;;24.25;12.27;;;;;;;5.98;100.00;101847.66;4962876;28;20521;-73
2023/04/10 06:08:11;;;;;;;23.42;12.00;;;;;;;6.05;100.00;101844.13;4963714;28;20034;-73
2023/04/10 06:10:37;;;;;;;26.83;12.95;;;;;;;6.10;100.00;101841.47;4959591;28;20117;-73
2023/04/10 06:13:03;;;;;;;24.33;12.82;;;;;;;6.16;100.00;101833.47;4929485;28;20034;-71
2023/04/10 06:15:28;;;;;;;23.35;13.07;;;;;;;6.23;100.00;101829.03;4931753;28;20057;-72
2023/04/10 06:17:54;;;;;;;24.75;13.27;;;;;;;6.29;100.00;101825.47;4947803;28;20422;-72
2023/04/10 06:20:20;;;;;;;23.92;13.13;;;;;;;6.36;100.00;101825.38;4941282;28;20034;-72
2023/04/10 06:22:46;;;;;;;23.90;11.75;;;;;;;6.44;100.00;101824.41;4947492;28;20038;-72
2023/04/10 06:25:12;;;;;;;28.83;12.60;;;;;;;6.52;100.00;101814.66;4933891;28;20034;-72
2023/04/10 06:27:37;;;;;;;25.15;13.23;;;;;;;6.61;100.00;101818.94;4960554;28;20593;-72
2023/04/10 06:30:03;;;;;;;25.42;13.00;;;;;;;6.70;100.00;101807.44;4959198;28;20526;-72
2023/04/10 06:32:29;;;;;;;25.05;13.05;;;;;;;6.76;100.00;101805.56;4959372;28;20359;-72
2023/04/10 06:34:55;;;;;;;26.52;12.93;;;;;;;6.86;100.00;101801.03;4962418;28;20037;-72
2023/04/10 06:37:30;;;;;;;25.10;12.93;;;;;;;6.97;100.00;101792.13;4960949;28;20039;-74
2023/04/10 06:40:07;;;;;;;26.70;12.98;;;;;;;7.10;100.00;101798.06;4961540;28;20034;-73
2023/04/10 06:42:33;;;;;;;24.95;12.13;;;;;;;7.27;100.00;101798.69;4947754;28;20069;-72
2023/04/10 06:44:59;;;;;;;23.95;13.13;;;;;;;7.43;100.00;101791.38;4959178;28;20576;-72
2023/04/10 06:47:24;;;;;;;23.08;12.32;;;;;;;7.59;100.00;101786.69;4960717;28;20042;-72
2023/04/10 06:49:50;;;;;;;25.10;12.77;;;;;;;7.72;100.00;101790.00;4945238;28;20092;-72
2023/04/10 06:52:16;;;;;;;22.38;12.80;;;;;;;7.86;100.00;101778.31;4962559;28;20050;-73
2023/04/10 06:54:42;;;;;;;24.55;12.30;;;;;;;7.97;100.00;101775.47;4956626;28;20291;-73
2023/04/10 06:57:07;;;;;;;30.80;13.38;;;;;;;8.09;100.00;101775.25;4958786;28;20348;-73
2023/04/10 06:59:34;;;;;;;29.17;13.02;;;;;;;8.21;100.00;101771.47;4962512;28;20045;-72
2023/04/10 07:02:01;;;;;;;27.15;12.45;;;;;;;8.33;100.00;101761.56;4960649;28;21613;-72
2023/04/10 07:04:27;;;;;;;23.63;11.68;;;;;;;8.42;100.00;101756.97;4960477;28;20500;-73
2023/04/10 07:06:52;;;;;;;26.83;12.82;;;;;;;8.53;100.00;101756.75;4961030;28;20034;-74
2023/04/10 07:09:18;;;;;;;24.60;11.65;;;;;;;8.66;100.00;101751.22;4944776;28;20042;-73
2023/04/10 07:11:43;;;;;;;24.17;12.05;;;;;;;8.74;100.00;101736.06;4962296;28;20050;-73
2023/04/10 07:14:09;;;;;;;22.40;11.40;;;;;;;8.87;100.00;101739.25;4961130;28;20057;-74
2023/04/10 07:16:34;;;;;;;23.38;11.57;;;;;;;8.98;100.00;101732.88;4960036;28;20104;-73
2023/04/10 07:19:00;;;;;;;21.95;10.98;;;;;;;9.08;100.00;101719.38;4944497;28;20085;-74
2023/04/10 07:21:26;;;;;;;26.08;11.60;;;;;;;9.19;100.00;101726.16;4960526;28;20051;-74
2023/04/10 07:23:52;;;;;;;19.98;10.73;;;;;;;9.30;100.00;101723.22;4962106;28;20572;-74
2023/04/10 07:26:17;;;;;;;18.88;10.02;;;;;;;9.40;100.00;101724.75;4962701;28;20078;-74
2023/04/10 07:28:43;;;;;;;18.98;10.07;;;;;;;9.48;100.00;101725.41;4966321;28;20481;-74
2023/04/10 07:31:09;;;;;;;19.40;10.20;;;;;;;9.53;100.00;101719.13;4942852;28;20409;-73
2023/04/10 07:33:35;;;;;;;17.73;9.77;;;;;;;9.58;100.00;101717.25;4944217;28;20062;-73
2023/04/10 07:36:02;;;;;;;16.83;9.20;;;;;;;9.61;100.00;101715.38;4961265;28;20133;-74
2023/04/10 07:38:27;;;;;;;18.40;9.63;;;;;;;9.63;100.00;101718.84;4964663;28;21934;-74
2023/04/10 07:40:59;;;;;;;18.40;9.48;;;;;;;9.63;100.00;101710.91;4940730;28;20035;-73
2023/04/10 07:43:25;;;;;;;15.57;8.63;;;;;;;9.64;100.00;101707.34;4965386;28;20077;-73
2023/04/10 07:45:51;;;;;;;16.40;8.93;;;;;;;9.65;100.00;101703.78;4965801;28;20469;-74
2023/04/10 07:48:16;;;;;;;16.30;9.35;;;;;;;9.67;100.00;101697.59;4945993;28;20049;-73
2023/04/10 07:50:42;;;;;;;15.75;8.57;;;;;;;9.70;100.00;101693.06;4965858;28;20026;-73
2023/04/10 07:53:07;;;;;;;15.82;9.45;;;;;;;9.72;100.00;101683.34;4963791;28;20054;-73
2023/04/10 07:55:37;;;;;;;15.88;9.38;;;;;;;9.75;100.00;101690.34;4950199;28;20117;-73
2023/04/10 07:58:03;;;;;;;16.95;9.05;;;;;;;9.79;100.00;101678.72;4960034;28;20826;-73
2023/04/10 08:00:28;;;;;;;15.40;9.30;;;;;;;9.87;100.00;101681.16;4965655;28;20133;-74
2023/04/10 08:02:54;;;;;;;15.65;9.27;;;;;;;9.95;100.00;101679.16;4943548;28;20052;-73
2023/04/10 08:05:20;;;;;;;17.52;9.20;;;;;;;10.04;100.00;101675.38;4950542;28;20129;-72
2023/04/10 08:07:46;;;;;;;14.50;8.60;;;;;;;10.11;100.00;101676.94;4961850;28;20034;-73
2023/04/10 08:10:14;;;;;;;15.73;9.05;;;;;;;10.16;100.00;101671.50;4951919;28;20124;-72
2023/04/10 08:12:40;;;;;;;13.48;8.70;;;;;;;10.23;100.00;101672.19;4947291;28;20038;-72
2023/04/10 08:15:06;;;;;;;14.55;9.02;;;;;;;10.29;100.00;101666.66;4963570;28;20112;-72
2023/04/10 08:17:31;;;;;;;14.48;8.18;;;;;;;10.37;100.00;101667.31;4964994;28;20034;-72
2023/04/10 08:19:57;;;;;;;18.05;9.07;;;;;;;10.45;100.00;101667.97;4965023;28;20668;-73
2023/04/10 08:22:23;;;;;;;17.13;9.20;;;;;;;10.51;100.00;101664.25;4964983;28;20111;-73
2023/04/10 08:24:48;;;;;;;15.20;8.80;;;;;;;10.58;100.00;101659.63;4964352;28;20054;-73
2023/04/10 08:27:15;;;;;;;15.48;9.13;;;;;;;10.64;100.00;101662.09;4965011;28;20646;-73
2023/04/10 08:29:41;;;;;;;14.95;8.48;;;;;;;10.70;100.00;101656.59;4965044;28;20125;-71
2023/04/10 08:32:07;;;;;;;16.17;8.98;;;;;;;10.81;100.00;101653.59;4964464;28;20057;-72
2023/04/10 08:34:32;;;;;;;13.80;8.48;;;;;;;10.95;100.00;101650.44;4963130;28;20046;-71
2023/04/10 08:36:58;;;;;;;14.68;8.13;;;;;;;11.12;100.00;101654.31;4964392;28;20046;-71
2023/04/10 08:39:24;;;;;;;14.55;8.60;;;;;;;11.26;100.00;101659.13;4963827;28;20520;-71
2023/04/10 08:41:49;;;;;;;16.02;8.93;;;;;;;11.38;100.00;101637.47;4962439;28;20034;-71
2023/04/10 08:44:15;;;;;;;15.68;9.15;;;;;;;11.45;98.55;101640.78;4946031;28;20053;-71
2023/04/10 08:46:42;;;;;;;17.77;9.07;;;;;;;11.52;100.00;101639.66;4930307;28;20071;-71
2023/04/10 08:49:10;;;;;;;13.80;8.90;;;;;;;11.57;100.00;101623.56;4945714;28;20062;-72
2023/04/10 08:51:40;;;;;;;13.07;8.30;;;;;;;11.58;99.17;101624.41;4942775;28;20488;-72
2023/04/10 08:54:10;;;;;;;14.82;8.23;;;;;;;11.60;99.86;101619.94;4932200;28;20026;-73
2023/04/10 08:56:36;;;;;;;12.57;8.35;;;;;;;11.64;99.20;101616.22;4964194;28;20093;-72
2023/04/10 08:59:02;;;;;;;13.05;7.93;;;;;;;11.66;100.00;101623.19;4946126;28;20104;-71
2023/04/10 09:01:28;;;;;;;12.68;7.78;;;;;;;11.72;98.62;101618.59;4960208;28;20037;-72
2023/04/10 09:03:54;;;;;;;14.55;8.05;;;;;;;11.78;99.15;101613.91;4964347;28;21176;-72
2023/04/10 09:06:19;;;;;;;13.45;8.07;;;;;;;11.80;98.17;101612.09;4945478;28;20172;-73
2023/04/10 09:08:45;;;;;;;13.23;7.72;;;;;;;11.77;95.50;101606.88;4962464;28;20264;-72
2023/04/10 09:11:12;;;;;;;12.60;8.05;;;;;;;11.75;92.87;101599.91;4963627;28;20074;-73
2023/04/10 09:13:39;;;;;;;11.20;7.85;;;;;;;11.75;94.62;101602.53;4948487;28;20045;-73
2023/04/10 09:16:06;;;;;;;12.95;8.20;;;;;;;11.74;93.83;101601.69;4932446;28;20624;-72
2023/04/10 09:18:42;;;;;;;13.77;7.80;;;;;;;11.70;92.04;101602.72;4941065;28;20544;-73
2023/04/10 09:21:09;;;;;;;12.15;7.60;;;;;;;11.68;93.95;101596.63;4946277;28;20740;-73
2023/04/10 09:23:37;;;;;;;11.85;7.38;;;;;;;11.65;90.45;101594.06;4963531;28;20854;-71
2023/04/10 09:26:28;;;;;;;14.60;7.57;;;;;;;11.72;93.38;101590.25;4964500;28;20125;-72
2023/04/10 09:29:01;;;;;;;12.10;7.22;;;;;;;11.82;94.42;101583.69;4941402;28;21053;-71
2023/04/10 09:31:29;;;;;;;12.63;7.15;;;;;;;11.88;94.73;101571.13;4963880;28;20621;-71
2023/04/10 09:34:14;;;;;;;13.13;7.28;;;;;;;11.94;90.92;101565.56;4963444;28;20391;-72
2023/04/10 09:36:42;;;;;;;13.95;7.93;;;;;;;11.97;94.32;101541.56;4941379;28;20153;-72
2023/04/10 09:39:09;;;;;;;10.15;7.10;;;;;;;11.98;91.78;101545.94;4945720;28;20068;-72
2023/04/10 09:41:52;;;;;;;11.18;7.13;;;;;;;12.02;92.22;101541.38;4941984;28;20042;-72
2023/04/10 09:44:28;;;;;;;13.93;7.57;;;;;;;12.04;91.53;101531.59;4947411;28;21034;-72
2023/04/10 09:46:54;;;;;;;10.70;7.18;;;;;;;12.06;92.48;101529.75;4963754;28;20038;-72
2023/04/10 09:49:22;;;;;;;13.68;7.50;;;;;;;12.08;93.56;101520.78;4959646;28;20042;-72
2023/04/10 09:51:48;;;;;;;10.00;6.82;;;;;;;12.09;93.14;101522.53;4963333;28;20109;-73
2023/04/10 09:54:14;;;;;;;12.90;7.55;;;;;;;12.09;92.93;101516.34;4943053;28;20045;-72
2023/04/10 09:56:43;;;;;;;12.43;7.18;;;;;;;12.08;90.60;101507.53;4962975;28;20060;-72
2023/04/10 09:59:10;;;;;;;10.70;6.60;;;;;;;12.09;91.04;101497.75;4935292;28;20037;-70
2023/04/10 10:01:36;;;;;;;12.25;7.07;;;;;;;12.05;90.88;101499.66;4963681;28;20026;-72
2023/04/10 10:04:03;;;;;;;10.65;6.50;;;;;;;12.04;90.93;101503.25;4939939;28;20560;-72
2023/04/10 10:06:32;;;;;;;12.90;7.25;;;;;;;12.05;92.34;101491.72;4960166;28;20066;-72
2023/04/10 10:09:03;;;;;;;12.38;6.80;;;;;;;12.04;91.45;101495.28;4941653;28;20100;-72
2023/04/10 10:11:32;;;;;;;11.50;7.13;;;;;;;12.05;92.04;101489.06;4960977;28;20042;-72
2023/04/10 10:13:59;;;;;;;12.50;6.82;;;;;;;12.09;93.24;101495.09;4944557;28;20038;-72
2023/04/10 10:16:31;;;;;;;10.07;6.60;;;;;;;12.13;90.28;101487.88;4963033;28;20493;-73
2023/04/10 10:19:12;;;;;;;11.88;7.03;;;;;;;12.19;92.89;101477.00;4945320;28;20562;-72
2023/04/10 10:21:38;;;;;;;9.05;5.95;;;;;;;12.21;88.03;101476.00;4947147;28;20043;-71
2023/04/10 10:24:07;;;;;;;11.25;6.68;;;;;;;12.24;86.55;101471.53;4947813;28;20591;-72
2023/04/10 10:26:34;;;;;;;11.35;6.53;;;;;;;12.27;88.05;101460.75;4940748;28;20153;-72
2023/04/10 10:29:19;;;;;;;9.77;6.45;;;;;;;12.31;85.34;101462.38;4960773;28;20449;-72
2023/04/10 10:31:46;;;;;;;8.98;6.10;;;;;;;12.34;86.90;101449.81;4939192;28;20042;-72
2023/04/10 10:34:15;;;;;;;11.20;6.15;;;;;;;12.40;88.00;101448.69;4945913;28;20491;-72
2023/04/10 10:36:42;;;;;;;9.85;6.65;;;;;;;12.47;86.48;101451.91;4943945;28;20554;-72
2023/04/10 10:39:22;;;;;;;9.30;5.68;;;;;;;12.52;85.99;101444.63;4961889;28;20120;-73
2023/04/10 10:42:04;;;;;;;11.27;6.45;;;;;;;12.54;83.84;101436.59;4958621;28;20453;-73
2023/04/10 10:44:43;;;;;;;9.10;6.45;;;;;;;12.56;83.61;101434.72;4931881;28;20054;-72
2023/04/10 10:47:21;;;;;;;7.35;5.53;;;;;;;12.55;81.69;101415.28;4929088;28;20038;-72
2023/04/10 10:49:55;;;;;;;11.75;6.32;;;;;;;12.57;84.06;101409.88;4939352;28;20124;-72
2023/04/10 10:52:43;;;;;;;9.48;6.05;;;;;;;12.54;82.08;101410.03;4962066;28;20205;-73
2023/04/10 10:55:20;;;;;;;9.57;6.38;;;;;;;12.53;80.29;101408.31;4962668;28;20093;-72
2023/04/10 10:57:51;;;;;;;10.57;6.50;;;;;;;12.55;82.24;101398.47;4961150;28;20470;-71
2023/04/10 11:00:17;;;;;;;10.18;6.22;;;;;;;12.55;84.61;101391.38;4931595;28;20044;-71
2023/04/10 11:02:43;;;;;;;9.13;6.32;;;;;;;12.60;84.35;101397.31;4959893;28;20038;-72
2023/04/10 11:05:08;;;;;;;9.60;6.40;;;;;;;12.61;82.49;101384.91;4961520;28;20034;-73
2023/04/10 11:07:59;;;;;;;8.68;6.00;;;;;;;12.59;81.86;101369.03;4948620;28;20027;-71
2023/04/10 11:11:00;;;;;;;10.32;5.95;;;;;;;12.66;84.07;101363.44;4947499;28;20066;-71
2023/04/10 11:13:26;;;;;;;11.13;6.93;;;;;;;12.72;84.88;101356.06;4945231;28;20046;-71
2023/04/10 11:15:51;;;;;;;9.55;6.18;;;;;;;12.81;86.29;101348.59;4945158;28;20070;-72